Time;durP1;ratioP1;P1;durP2;ratioP2;P2;SDS_P1;SDS_P2;PMS_P1;PMS_P2;Temp;Humidity;BMP_temperature;BMP_pressure;BME280_temperature;BME280_humidity;BME280_pressure;Samples;Min_cycle;Max_cycle;Signal;HPM_P1;HPM_P2
2023/07/19 00:01:12;;;;;;;24.20;6.60;;;;;;;;;;4889028;29;20036;-65
2023/07/19 00:03:38;;;;;;;18.33;6.45;;;;;;;;;;4911980;29;20090;-65
2023/07/19 00:06:05;;;;;;;19.25;6.55;;;;;;;;;;4913853;29;20035;-65
2023/07/19 00:08:31;;;;;;;22.70;6.65;;;;;;;;;;4915095;29;20059;-65
2023/07/19 00:10:57;;;;;;;19.48;6.25;;;;;;;;;;4908570;29;20039;-65
2023/07/19 00:13:24;;;;;;;21.77;5.82;;;;;;;;;;4895932;29;20506;-64
2023/07/19 00:15:50;;;;;;;22.02;6.43;;;;;;;;;;4891248;29;20046;-66
2023/07/19 00:18:16;;;;;;;20.85;6.50;;;;;;;;;;4915941;29;20677;-65
2023/07/19 00:20:43;;;;;;;21.58;6.30;;;;;;;;;;4888835;29;20059;-66
2023/07/19 00:23:09;;;;;;;19.65;7.00;;;;;;;;;;4911294;29;20031;-65
2023/07/19 00:25:35;;;;;;;23.10;6.85;;;;;;;;;;4912962;28;20091;-65
2023/07/19 00:28:01;;;;;;;22.55;6.63;;;;;;;;;;4912298;29;20108;-65
2023/07/19 00:30:27;;;;;;;20.33;6.68;;;;;;;;;;4912600;29;20040;-67
2023/07/19 00:32:53;;;;;;;22.40;6.95;;;;;;;;;;4911142;29;20028;-65
2023/07/19 00:35:20;;;;;;;20.25;6.70;;;;;;;;;;4900843;29;20063;-64
2023/07/19 00:37:46;;;;;;;20.55;6.90;;;;;;;;;;4915124;29;20043;-64
2023/07/19 00:40:12;;;;;;;27.10;6.53;;;;;;;;;;4912407;28;20143;-65
2023/07/19 00:42:38;;;;;;;22.90;6.47;;;;;;;;;;4911873;29;20043;-64
2023/07/19 00:45:05;;;;;;;22.40;6.72;;;;;;;;;;4910270;28;20760;-64
2023/07/19 00:47:32;;;;;;;22.67;7.13;;;;;;;;;;4909855;29;20028;-65
2023/07/19 00:49:58;;;;;;;19.27;6.72;;;;;;;;;;4920449;28;20089;-65
2023/07/19 00:52:24;;;;;;;21.98;6.45;;;;;;;;;;4919864;28;20521;-64
2023/07/19 00:54:51;;;;;;;20.58;6.75;;;;;;;;;;4910363;28;20043;-65
2023/07/19 00:57:17;;;;;;;17.05;6.38;;;;;;;;;;4912412;28;20047;-64
2023/07/19 00:59:43;;;;;;;20.25;6.72;;;;;;;;;;4933907;28;20093;-65
2023/07/19 01:02:10;;;;;;;22.50;6.50;;;;;;;;;;4928216;28;24084;-64
2023/07/19 01:04:36;;;;;;;20.20;7.13;;;;;;;;;;4909198;28;20028;-64
2023/07/19 01:07:02;;;;;;;24.77;7.05;;;;;;;;;;4932776;28;20042;-64
2023/07/19 01:09:29;;;;;;;21.63;6.63;;;;;;;;;;4929512;28;20027;-64
2023/07/19 01:11:56;;;;;;;23.33;6.57;;;;;;;;;;4926196;28;20348;-65
2023/07/19 01:14:22;;;;;;;21.98;6.68;;;;;;;;;;4930526;28;20066;-64
2023/07/19 01:16:48;;;;;;;23.38;6.43;;;;;;;;;;4929976;28;20241;-64
2023/07/19 01:19:16;;;;;;;20.35;6.57;;;;;;;;;;4929777;28;20080;-65
2023/07/19 01:21:42;;;;;;;18.10;6.38;;;;;;;;;;4931293;28;20023;-64
2023/07/19 01:24:08;;;;;;;17.85;6.10;;;;;;;;;;4923057;28;20043;-65
2023/07/19 01:26:34;;;;;;;18.42;5.90;;;;;;;;;;4911923;28;20042;-65
2023/07/19 01:29:01;;;;;;;26.55;5.95;;;;;;;;;;4922863;28;20031;-65
2023/07/19 01:31:27;;;;;;;22.38;5.72;;;;;;;;;;4931638;28;20468;-65
2023/07/19 01:33:53;;;;;;;18.35;5.90;;;;;;;;;;4931496;28;20035;-66
2023/07/19 01:36:20;;;;;;;21.60;6.20;;;;;;;;;;4935736;28;20034;-65
2023/07/19 01:38:46;;;;;;;21.75;6.60;;;;;;;;;;4935351;28;20029;-65
2023/07/19 01:41:12;;;;;;;22.27;6.30;;;;;;;;;;4929354;28;20492;-65
2023/07/19 01:43:38;;;;;;;19.75;6.40;;;;;;;;;;4918295;28;20038;-64
2023/07/19 01:46:05;;;;;;;23.77;6.70;;;;;;;;;;4930739;28;20111;-65
2023/07/19 01:48:31;;;;;;;20.70;6.10;;;;;;;;;;4930296;28;20414;-65
2023/07/19 01:50:57;;;;;;;20.23;5.82;;;;;;;;;;4931450;28;20110;-65
2023/07/19 01:53:23;;;;;;;19.15;5.25;;;;;;;;;;4940586;28;20035;-65
2023/07/19 01:55:50;;;;;;;19.35;6.22;;;;;;;;;;4930500;28;20668;-65
2023/07/19 01:58:16;;;;;;;20.27;5.57;;;;;;;;;;4918324;28;20435;-65
2023/07/19 02:00:42;;;;;;;21.42;6.10;;;;;;;;;;4932726;28;20445;-65
2023/07/19 02:03:08;;;;;;;21.55;5.78;;;;;;;;;;4914570;28;20027;-65
2023/07/19 02:05:34;;;;;;;21.38;6.30;;;;;;;;;;4935215;28;20407;-65
2023/07/19 02:08:01;;;;;;;20.15;6.40;;;;;;;;;;4932296;28;20703;-66
2023/07/19 02:10:27;;;;;;;20.48;5.93;;;;;;;;;;4931580;28;20038;-65
2023/07/19 02:12:53;;;;;;;18.88;5.95;;;;;;;;;;4913275;28;20054;-65
2023/07/19 02:15:20;;;;;;;20.80;6.05;;;;;;;;;;4932356;28;20573;-65
2023/07/19 02:17:46;;;;;;;21.65;5.57;;;;;;;;;;4931440;28;20026;-65
2023/07/19 02:20:13;;;;;;;19.30;5.72;;;;;;;;;;4930036;28;20117;-64
2023/07/19 02:22:40;;;;;;;24.10;6.43;;;;;;;;;;4921213;28;20379;-65
2023/07/19 02:25:06;;;;;;;19.52;6.10;;;;;;;;;;4925763;28;20030;-65
2023/07/19 02:27:32;;;;;;;24.48;6.78;;;;;;;;;;4932824;28;20495;-65
2023/07/19 02:29:59;;;;;;;19.33;6.68;;;;;;;;;;4927855;28;20273;-65
2023/07/19 02:32:25;;;;;;;19.45;6.15;;;;;;;;;;4929525;28;20090;-65
2023/07/19 02:34:51;;;;;;;20.45;6.35;;;;;;;;;;4929542;28;20180;-65
2023/07/19 02:37:17;;;;;;;21.88;6.18;;;;;;;;;;4921464;28;20022;-65
2023/07/19 02:39:43;;;;;;;22.15;6.47;;;;;;;;;;4932072;28;20559;-64
2023/07/19 02:42:10;;;;;;;18.10;5.88;;;;;;;;;;4924026;28;20485;-65
2023/07/19 02:44:36;;;;;;;27.75;6.35;;;;;;;;;;4933711;28;20026;-64
2023/07/19 02:47:02;;;;;;;18.20;6.43;;;;;;;;;;4910435;28;20031;-65
2023/07/19 02:49:28;;;;;;;22.70;6.88;;;;;;;;;;4914398;28;20046;-65
2023/07/19 02:51:54;;;;;;;21.77;6.38;;;;;;;;;;4932971;28;20288;-65
2023/07/19 02:54:20;;;;;;;22.77;6.68;;;;;;;;;;4936076;28;20044;-65
2023/07/19 02:56:47;;;;;;;20.30;6.60;;;;;;;;;;4931669;28;20118;-64
2023/07/19 02:59:13;;;;;;;20.52;6.47;;;;;;;;;;4931534;28;20034;-63
2023/07/19 03:01:41;;;;;;;16.48;5.50;;;;;;;;;;4913925;28;20088;-64
2023/07/19 03:04:07;;;;;;;16.58;5.82;;;;;;;;;;4931418;28;20027;-63
2023/07/19 03:06:34;;;;;;;20.48;6.00;;;;;;;;;;4913703;28;20035;-64
2023/07/19 03:09:00;;;;;;;18.15;5.75;;;;;;;;;;4924760;28;20031;-64
2023/07/19 03:11:26;;;;;;;20.30;6.70;;;;;;;;;;4931824;28;20027;-63
2023/07/19 03:13:53;;;;;;;20.50;6.10;;;;;;;;;;4911977;28;20034;-63
2023/07/19 03:16:19;;;;;;;19.08;6.30;;;;;;;;;;4916291;28;20381;-66
2023/07/19 03:18:45;;;;;;;19.00;6.60;;;;;;;;;;4936978;28;20613;-66
2023/07/19 03:21:11;;;;;;;18.60;6.40;;;;;;;;;;4932465;28;20019;-63
2023/07/19 03:23:38;;;;;;;15.35;6.05;;;;;;;;;;4911320;28;20027;-67
2023/07/19 03:26:04;;;;;;;19.83;6.60;;;;;;;;;;4912311;28;20345;-64
2023/07/19 03:28:30;;;;;;;21.00;6.15;;;;;;;;;;4930160;28;20023;-63
2023/07/19 03:30:57;;;;;;;22.38;6.60;;;;;;;;;;4913987;28;20081;-64
2023/07/19 03:33:24;;;;;;;20.48;6.75;;;;;;;;;;4934141;28;20367;-64
2023/07/19 03:35:50;;;;;;;15.05;6.15;;;;;;;;;;4932281;28;20030;-64
2023/07/19 03:38:17;;;;;;;16.60;6.20;;;;;;;;;;4914271;28;20058;-64
2023/07/19 03:40:43;;;;;;;18.23;6.55;;;;;;;;;;4934507;28;20073;-63
2023/07/19 03:43:09;;;;;;;16.85;6.43;;;;;;;;;;4930171;28;21245;-63
2023/07/19 03:45:36;;;;;;;19.92;6.78;;;;;;;;;;4919096;28;20020;-63
2023/07/19 03:48:02;;;;;;;18.70;7.55;;;;;;;;;;4931176;28;20508;-63
2023/07/19 03:50:28;;;;;;;17.95;6.80;;;;;;;;;;4931944;28;20832;-64
2023/07/19 03:52:55;;;;;;;20.40;7.32;;;;;;;;;;4930394;28;20050;-64
2023/07/19 03:55:21;;;;;;;20.67;7.95;;;;;;;;;;4934504;28;20023;-64
2023/07/19 03:57:47;;;;;;;21.15;7.20;;;;;;;;;;4918554;28;20484;-64
2023/07/19 04:00:13;;;;;;;20.02;7.05;;;;;;;;;;4926750;28;20055;-64
2023/07/19 04:02:39;;;;;;;20.10;7.55;;;;;;;;;;4936135;28;20027;-64
2023/07/19 04:05:06;;;;;;;20.50;6.90;;;;;;;;;;4929771;28;20031;-64
2023/07/19 04:07:32;;;;;;;18.58;7.65;;;;;;;;;;4920273;28;20098;-64
2023/07/19 04:09:58;;;;;;;23.65;6.88;;;;;;;;;;4914153;28;20043;-65
2023/07/19 04:12:24;;;;;;;19.48;7.25;;;;;;;;;;4933889;28;20038;-66
2023/07/19 04:14:50;;;;;;;20.92;7.22;;;;;;;;;;4916329;28;20090;-66
2023/07/19 04:17:16;;;;;;;16.92;7.40;;;;;;;;;;4934887;28;20031;-65
2023/07/19 04:19:43;;;;;;;20.25;7.22;;;;;;;;;;4928987;28;20027;-64
2023/07/19 04:22:09;;;;;;;19.85;7.68;;;;;;;;;;4927628;28;20482;-64
2023/07/19 04:24:35;;;;;;;18.83;7.68;;;;;;;;;;4933161;28;20347;-65
2023/07/19 04:27:01;;;;;;;17.58;7.43;;;;;;;;;;4927932;28;20340;-65
2023/07/19 04:29:27;;;;;;;16.67;7.70;;;;;;;;;;4934878;28;20340;-65
2023/07/19 04:31:53;;;;;;;19.25;8.02;;;;;;;;;;4924205;28;20057;-64
2023/07/19 04:34:20;;;;;;;17.48;7.30;;;;;;;;;;4917864;28;20364;-65
2023/07/19 04:36:46;;;;;;;21.13;8.77;;;;;;;;;;4933193;28;20039;-65
2023/07/19 04:39:12;;;;;;;20.75;8.13;;;;;;;;;;4929858;28;20031;-65
2023/07/19 04:41:38;;;;;;;21.27;8.15;;;;;;;;;;4914160;28;20451;-64
2023/07/19 04:44:05;;;;;;;18.02;7.22;;;;;;;;;;4911661;28;20286;-65
2023/07/19 04:46:31;;;;;;;22.48;8.25;;;;;;;;;;4931008;28;20086;-65
2023/07/19 04:48:57;;;;;;;18.58;7.35;;;;;;;;;;4911094;28;20031;-65
2023/07/19 04:51:23;;;;;;;16.00;6.60;;;;;;;;;;4933482;28;20058;-65
2023/07/19 04:53:49;;;;;;;15.38;7.75;;;;;;;;;;4925452;28;20031;-65
2023/07/19 04:56:16;;;;;;;16.27;7.28;;;;;;;;;;4915804;28;20027;-64
2023/07/19 04:58:42;;;;;;;15.55;7.25;;;;;;;;;;4927755;28;20458;-64
2023/07/19 05:01:08;;;;;;;21.00;7.80;;;;;;;;;;4910350;28;20109;-65
2023/07/19 05:03:35;;;;;;;15.90;6.10;;;;;;;;;;4930358;28;20389;-66
2023/07/19 05:06:01;;;;;;;17.55;7.30;;;;;;;;;;4910526;28;20464;-64
2023/07/19 05:08:27;;;;;;;13.35;6.35;;;;;;;;;;4939104;28;20031;-65
2023/07/19 05:10:53;;;;;;;14.77;6.82;;;;;;;;;;4914612;28;20250;-65
2023/07/19 05:13:19;;;;;;;18.00;6.88;;;;;;;;;;4936474;28;20263;-65
2023/07/19 05:15:46;;;;;;;14.40;7.05;;;;;;;;;;4916603;28;20038;-64
2023/07/19 05:18:12;;;;;;;18.20;7.65;;;;;;;;;;4933802;28;20114;-65
2023/07/19 05:20:38;;;;;;;18.00;7.60;;;;;;;;;;4931868;28;20557;-64
2023/07/19 05:23:04;;;;;;;17.27;6.88;;;;;;;;;;4928244;28;20031;-64
2023/07/19 05:25:30;;;;;;;18.83;7.55;;;;;;;;;;4911173;28;20111;-65
2023/07/19 05:27:56;;;;;;;19.80;7.35;;;;;;;;;;4914209;28;20039;-65
2023/07/19 05:30:22;;;;;;;17.88;7.28;;;;;;;;;;4934262;28;20038;-65
2023/07/19 05:32:49;;;;;;;19.30;7.93;;;;;;;;;;4916684;28;20524;-65
2023/07/19 05:35:15;;;;;;;21.60;8.52;;;;;;;;;;4937322;28;20125;-65
2023/07/19 05:37:41;;;;;;;22.13;7.47;;;;;;;;;;4920188;28;20031;-65
2023/07/19 05:40:08;;;;;;;23.27;8.10;;;;;;;;;;4930585;28;20041;-65
2023/07/19 05:42:34;;;;;;;20.45;7.43;;;;;;;;;;4934422;28;20129;-65
2023/07/19 05:45:00;;;;;;;19.10;6.70;;;;;;;;;;4928607;28;20465;-64
2023/07/19 05:47:26;;;;;;;20.20;6.75;;;;;;;;;;4930328;28;20031;-66
2023/07/19 05:49:52;;;;;;;18.77;6.43;;;;;;;;;;4896937;29;20047;-66
2023/07/19 05:52:19;;;;;;;31.23;7.03;;;;;;;;;;4914444;29;20062;-65
2023/07/19 05:54:45;;;;;;;29.00;7.70;;;;;;;;;;4899250;29;20286;-65
2023/07/19 05:57:11;;;;;;;27.90;7.15;;;;;;;;;;4908784;29;20158;-64
2023/07/19 05:59:37;;;;;;;23.88;7.15;;;;;;;;;;4916789;29;20071;-65
2023/07/19 06:02:05;;;;;;;20.58;6.63;;;;;;;;;;4908415;29;20488;-64
2023/07/19 06:04:32;;;;;;;19.58;7.13;;;;;;;;;;4902788;29;21208;-65
2023/07/19 06:06:58;;;;;;;19.95;7.22;;;;;;;;;;4913377;29;20435;-65
2023/07/19 06:09:24;;;;;;;16.75;6.20;;;;;;;;;;4912307;29;20541;-65
2023/07/19 06:11:50;;;;;;;19.40;6.72;;;;;;;;;;4909451;29;20553;-65
2023/07/19 06:14:16;;;;;;;22.85;6.60;;;;;;;;;;4896930;29;20423;-65
2023/07/19 06:16:43;;;;;;;26.92;6.75;;;;;;;;;;4897113;29;20032;-65
2023/07/19 06:19:09;;;;;;;23.45;6.80;;;;;;;;;;4896922;29;20138;-64
2023/07/19 06:21:35;;;;;;;20.92;6.93;;;;;;;;;;4897978;29;20562;-65
2023/07/19 06:24:01;;;;;;;19.45;6.50;;;;;;;;;;4894035;29;20039;-64
2023/07/19 06:26:27;;;;;;;17.70;6.35;;;;;;;;;;4896924;29;20032;-65
2023/07/19 06:28:53;;;;;;;12.93;5.43;;;;;;;;;;4892117;29;20327;-65
2023/07/19 06:31:20;;;;;;;17.70;6.13;;;;;;;;;;4916831;29;20281;-65
2023/07/19 06:33:46;;;;;;;20.30;5.78;;;;;;;;;;4914816;29;20060;-65
2023/07/19 06:36:12;;;;;;;13.13;4.68;;;;;;;;;;4913462;29;20024;-65
2023/07/19 06:38:38;;;;;;;17.13;6.20;;;;;;;;;;4911897;29;20079;-65
2023/07/19 06:41:04;;;;;;;14.93;6.28;;;;;;;;;;4913660;29;20254;-65
2023/07/19 06:43:31;;;;;;;17.58;6.13;;;;;;;;;;4916217;29;20418;-65
2023/07/19 06:45:57;;;;;;;16.05;5.57;;;;;;;;;;4917051;29;20039;-65
2023/07/19 06:48:24;;;;;;;15.27;5.22;;;;;;;;;;4898006;29;20063;-65
2023/07/19 06:50:50;;;;;;;17.00;5.55;;;;;;;;;;4924275;28;20046;-65
2023/07/19 06:53:16;;;;;;;18.48;5.80;;;;;;;;;;4931986;28;20031;-65
2023/07/19 06:55:42;;;;;;;14.40;5.38;;;;;;;;;;4915149;28;20054;-65
2023/07/19 06:58:09;;;;;;;19.08;5.50;;;;;;;;;;4924249;28;20039;-65
2023/07/19 07:00:35;;;;;;;20.45;5.78;;;;;;;;;;4929742;28;20573;-65
2023/07/19 07:03:03;;;;;;;21.27;5.43;;;;;;;;;;4925642;28;20031;-65
2023/07/19 07:05:30;;;;;;;16.50;5.38;;;;;;;;;;4934107;28;20508;-65
2023/07/19 07:07:56;;;;;;;17.05;5.20;;;;;;;;;;4928433;28;20043;-65
2023/07/19 07:10:22;;;;;;;15.68;5.22;;;;;;;;;;4933260;28;20036;-65
2023/07/19 07:12:49;;;;;;;17.73;5.40;;;;;;;;;;4933947;28;20038;-65
2023/07/19 07:15:15;;;;;;;18.13;6.03;;;;;;;;;;4936232;28;20035;-65
2023/07/19 07:17:41;;;;;;;18.75;6.05;;;;;;;;;;4933567;28;20450;-65
2023/07/19 07:20:08;;;;;;;21.58;5.85;;;;;;;;;;4930311;28;20058;-65
2023/07/19 07:22:34;;;;;;;15.38;5.13;;;;;;;;;;4929761;28;20132;-66
2023/07/19 07:25:01;;;;;;;18.48;5.88;;;;;;;;;;4909835;28;20031;-67
2023/07/19 07:27:28;;;;;;;19.58;5.60;;;;;;;;;;4909262;28;20035;-64
2023/07/19 07:29:54;;;;;;;15.88;5.90;;;;;;;;;;4926793;28;20495;-65
2023/07/19 07:32:20;;;;;;;14.27;5.43;;;;;;;;;;4932785;28;20077;-64
2023/07/19 07:34:46;;;;;;;17.45;5.32;;;;;;;;;;4934224;28;20035;-65
2023/07/19 07:37:12;;;;;;;15.63;5.72;;;;;;;;;;4910350;28;20126;-64
2023/07/19 07:39:38;;;;;;;14.85;5.30;;;;;;;;;;4935099;28;20106;-64
2023/07/19 07:42:05;;;;;;;16.58;5.15;;;;;;;;;;4927472;28;20043;-65
2023/07/19 07:44:31;;;;;;;12.55;4.70;;;;;;;;;;4935020;28;20404;-67
2023/07/19 07:46:58;;;;;;;17.77;5.68;;;;;;;;;;4926567;28;20039;-64
2023/07/19 07:49:24;;;;;;;14.32;5.55;;;;;;;;;;4911649;28;20608;-64
2023/07/19 07:51:50;;;;;;;28.90;6.05;;;;;;;;;;4926115;28;20054;-64
2023/07/19 07:54:17;;;;;;;26.35;6.07;;;;;;;;;;4931370;28;20483;-64
2023/07/19 07:56:44;;;;;;;14.70;4.97;;;;;;;;;;4932199;28;20614;-64
2023/07/19 07:59:10;;;;;;;16.35;5.47;;;;;;;;;;4929010;28;20677;-64
2023/07/19 08:01:36;;;;;;;12.63;5.22;;;;;;;;;;4928605;28;20795;-64
2023/07/19 08:04:06;;;;;;;18.98;5.50;;;;;;;;;;4927859;28;20111;-64
2023/07/19 08:06:32;;;;;;;15.65;4.80;;;;;;;;;;4932990;28;20525;-64
2023/07/19 08:08:58;;;;;;;13.32;4.43;;;;;;;;;;4916663;28;20133;-64
2023/07/19 08:11:26;;;;;;;13.70;5.03;;;;;;;;;;4928943;28;20078;-66
2023/07/19 08:13:52;;;;;;;13.63;4.63;;;;;;;;;;4911316;28;20089;-64
2023/07/19 08:16:19;;;;;;;17.73;5.30;;;;;;;;;;4916014;28;20062;-64
2023/07/19 08:18:45;;;;;;;13.93;4.32;;;;;;;;;;4911286;28;20426;-64
2023/07/19 08:21:11;;;;;;;12.20;5.28;;;;;;;;;;4927160;28;20131;-64
2023/07/19 08:23:37;;;;;;;13.80;5.00;;;;;;;;;;4931325;28;20033;-65
2023/07/19 08:26:03;;;;;;;15.30;5.25;;;;;;;;;;4931345;28;20240;-65
2023/07/19 08:28:29;;;;;;;14.63;5.10;;;;;;;;;;4916502;28;20035;-65
2023/07/19 08:30:55;;;;;;;14.02;4.82;;;;;;;;;;4928548;28;20365;-64
2023/07/19 08:33:22;;;;;;;17.35;5.43;;;;;;;;;;4929809;28;20508;-65
2023/07/19 08:35:52;;;;;;;15.93;5.03;;;;;;;;;;4913337;28;20158;-64
2023/07/19 08:38:19;;;;;;;17.55;5.40;;;;;;;;;;4932238;28;20038;-65
2023/07/19 08:40:51;;;;;;;17.63;4.93;;;;;;;;;;4933957;28;20435;-65
2023/07/19 08:43:18;;;;;;;15.30;5.50;;;;;;;;;;4934354;28;20028;-65
2023/07/19 08:45:44;;;;;;;16.05;5.10;;;;;;;;;;4934489;28;20794;-64
2023/07/19 08:48:10;;;;;;;13.50;4.47;;;;;;;;;;4932075;28;20313;-65
2023/07/19 08:50:37;;;;;;;12.77;4.30;;;;;;;;;;4939629;28;20618;-65
2023/07/19 08:53:03;;;;;;;16.05;5.70;;;;;;;;;;4914980;28;20030;-65
2023/07/19 08:55:32;;;;;;;14.40;4.68;;;;;;;;;;4935140;28;20035;-65
2023/07/19 08:57:59;;;;;;;15.68;5.13;;;;;;;;;;4929273;28;20157;-64
2023/07/19 09:00:30;;;;;;;17.98;5.05;;;;;;;;;;4937247;28;20042;-64
2023/07/19 09:02:56;;;;;;;17.15;5.50;;;;;;;;;;4913470;28;20388;-65
2023/07/19 09:05:29;;;;;;;18.48;5.60;;;;;;;;;;4937946;28;20478;-65
2023/07/19 09:07:59;;;;;;;24.65;5.70;;;;;;;;;;4934514;28;20465;-65
2023/07/19 09:10:26;;;;;;;15.00;5.00;;;;;;;;;;4936648;28;20381;-64
2023/07/19 09:12:52;;;;;;;12.73;4.80;;;;;;;;;;4915128;28;20573;-65
2023/07/19 09:15:19;;;;;;;19.33;5.47;;;;;;;;;;4932459;28;20416;-65
2023/07/19 09:17:46;;;;;;;15.55;5.43;;;;;;;;;;4933899;28;20131;-65
2023/07/19 09:20:13;;;;;;;15.00;5.07;;;;;;;;;;4930196;28;20102;-65
2023/07/19 09:22:39;;;;;;;10.65;4.35;;;;;;;;;;4936056;28;20324;-65
2023/07/19 09:25:07;;;;;;;14.20;4.70;;;;;;;;;;4931546;28;20039;-65
2023/07/19 09:27:33;;;;;;;26.40;5.38;;;;;;;;;;4933606;28;20117;-65
2023/07/19 09:30:00;;;;;;;16.05;4.40;;;;;;;;;;4933380;28;20486;-65
2023/07/19 09:32:27;;;;;;;18.15;5.10;;;;;;;;;;4916216;28;20529;-65
2023/07/19 09:34:57;;;;;;;23.77;5.63;;;;;;;;;;4934886;28;20065;-66
2023/07/19 09:37:25;;;;;;;18.65;5.57;;;;;;;;;;4933659;28;20121;-65
2023/07/19 09:39:52;;;;;;;18.92;5.28;;;;;;;;;;4933191;28;20433;-63
2023/07/19 09:42:19;;;;;;;18.83;5.00;;;;;;;;;;4937369;28;20035;-65
2023/07/19 09:44:49;;;;;;;18.52;5.30;;;;;;;;;;4913827;28;20035;-64
2023/07/19 09:47:15;;;;;;;18.30;5.22;;;;;;;;;;4917174;28;20475;-65
2023/07/19 09:49:42;;;;;;;20.27;5.65;;;;;;;;;;4917909;28;20419;-65
2023/07/19 09:52:09;;;;;;;20.05;5.90;;;;;;;;;;4932017;28;20035;-65
2023/07/19 09:54:35;;;;;;;17.85;4.90;;;;;;;;;;4938726;28;20171;-65
2023/07/19 09:57:03;;;;;;;20.92;5.93;;;;;;;;;;4911824;28;20133;-65
2023/07/19 09:59:40;;;;;;;14.55;5.15;;;;;;;;;;4937667;28;20350;-66
2023/07/19 10:02:07;;;;;;;15.25;4.97;;;;;;;;;;4914528;28;20105;-65
2023/07/19 10:04:39;;;;;;;15.13;5.07;;;;;;;;;;4935102;28;20191;-65
2023/07/19 10:07:14;;;;;;;25.27;5.43;;;;;;;;;;4913598;28;20050;-65
2023/07/19 10:09:41;;;;;;;;;;;;;;;;;;4920041;28;20035;-65
2023/07/19 10:12:08;;;;;;;23.45;5.85;;;;;;;;;;4929294;28;19925;-65
2023/07/19 10:14:35;;;;;;;18.98;5.40;;;;;;;;;;4917820;29;20031;-66
2023/07/19 10:17:03;;;;;;;17.30;5.05;;;;;;;;;;4917991;28;20043;-64
2023/07/19 10:19:29;;;;;;;15.98;5.55;;;;;;;;;;4933689;28;20347;-64
2023/07/19 10:22:02;;;;;;;16.60;5.72;;;;;;;;;;4933858;28;20134;-66
2023/07/19 10:24:28;;;;;;;21.92;6.00;;;;;;;;;;4929285;28;20111;-64
2023/07/19 10:26:55;;;;;;;17.35;5.35;;;;;;;;;;4930706;28;20044;-64
2023/07/19 10:29:25;;;;;;;16.77;5.75;;;;;;;;;;4932542;28;20031;-64
2023/07/19 10:31:51;;;;;;;17.60;5.70;;;;;;;;;;4913677;28;20061;-64
2023/07/19 10:34:28;;;;;;;17.85;5.22;;;;;;;;;;4931563;28;20055;-67
2023/07/19 10:36:55;;;;;;;14.10;5.10;;;;;;;;;;4913945;28;20043;-65
2023/07/19 10:39:23;;;;;;;15.73;5.45;;;;;;;;;;4930402;28;20024;-65
2023/07/19 10:41:50;;;;;;;15.02;5.05;;;;;;;;;;4928923;28;20453;-65
2023/07/19 10:44:17;;;;;;;16.50;5.55;;;;;;;;;;4932526;28;20174;-65
2023/07/19 10:46:44;;;;;;;17.88;5.20;;;;;;;;;;4914898;28;20050;-65
2023/07/19 10:49:11;;;;;;;15.95;6.10;;;;;;;;;;4912772;28;20065;-65
2023/07/19 10:51:37;;;;;;;13.85;5.43;;;;;;;;;;4912528;28;20371;-65
2023/07/19 10:54:03;;;;;;;22.40;5.43;;;;;;;;;;4910897;28;20046;-65
2023/07/19 10:56:29;;;;;;;14.75;5.30;;;;;;;;;;4933159;28;20509;-65
2023/07/19 10:59:01;;;;;;;14.25;5.25;;;;;;;;;;4928560;28;20035;-65
2023/07/19 11:01:29;;;;;;;17.85;5.38;;;;;;;;;;4912322;28;20103;-65
2023/07/19 11:03:55;;;;;;;15.88;5.80;;;;;;;;;;4928568;28;20051;-66
2023/07/19 11:06:21;;;;;;;15.95;5.50;;;;;;;;;;4929197;28;20035;-65
2023/07/19 11:08:47;;;;;;;16.70;5.35;;;;;;;;;;4928540;28;20099;-65
2023/07/19 11:11:14;;;;;;;15.18;5.22;;;;;;;;;;4913886;28;20044;-65
2023/07/19 11:13:40;;;;;;;17.20;5.47;;;;;;;;;;4930939;28;20035;-65
2023/07/19 11:16:06;;;;;;;18.75;5.90;;;;;;;;;;4933151;28;20094;-65
2023/07/19 11:18:36;;;;;;;17.05;5.75;;;;;;;;;;4930688;28;20054;-65
2023/07/19 11:21:03;;;;;;;16.58;5.68;;;;;;;;;;4910214;28;20125;-65
2023/07/19 11:23:30;;;;;;;17.58;5.53;;;;;;;;;;4913693;28;20036;-65
2023/07/19 11:26:03;;;;;;;16.60;5.47;;;;;;;;;;4926301;28;20027;-65
2023/07/19 11:28:46;;;;;;;17.93;5.50;;;;;;;;;;4931966;28;20469;-65
2023/07/19 11:31:34;;;;;;;14.68;5.03;;;;;;;;;;4926409;28;20095;-68
2023/07/19 11:34:00;;;;;;;15.02;4.93;;;;;;;;;;4927084;28;20039;-66
2023/07/19 11:36:26;;;;;;;13.48;5.05;;;;;;;;;;4912969;28;20034;-66
2023/07/19 11:38:52;;;;;;;16.88;5.97;;;;;;;;;;4925083;28;20146;-66
2023/07/19 11:41:18;;;;;;;18.67;6.03;;;;;;;;;;4937799;28;20039;-67
2023/07/19 11:43:45;;;;;;;16.10;5.32;;;;;;;;;;4924867;28;20031;-66
2023/07/19 11:46:14;;;;;;;17.63;5.90;;;;;;;;;;4925861;28;20114;-66
2023/07/19 11:48:40;;;;;;;16.55;5.82;;;;;;;;;;4926454;28;20668;-66
2023/07/19 11:51:06;;;;;;;14.90;5.35;;;;;;;;;;4925533;28;20543;-66
2023/07/19 11:53:33;;;;;;;18.73;5.57;;;;;;;;;;4928579;28;20054;-66
2023/07/19 11:55:59;;;;;;;16.63;5.38;;;;;;;;;;4927091;28;20028;-67
2023/07/19 11:58:25;;;;;;;18.33;5.70;;;;;;;;;;4929187;28;20045;-66
2023/07/19 12:00:51;;;;;;;16.83;5.13;;;;;;;;;;4904180;28;20573;-66
2023/07/19 12:03:17;;;;;;;17.95;6.00;;;;;;;;;;4924395;28;20091;-66
2023/07/19 12:05:46;;;;;;;16.52;5.15;;;;;;;;;;4909474;28;20035;-66
2023/07/19 12:08:12;;;;;;;18.40;5.88;;;;;;;;;;4924607;28;20035;-66
2023/07/19 12:10:38;;;;;;;23.48;6.13;;;;;;;;;;4927988;28;20065;-66
2023/07/19 12:13:04;;;;;;;18.92;5.75;;;;;;;;;;4923929;28;20034;-66
2023/07/19 12:15:30;;;;;;;20.33;5.93;;;;;;;;;;4914897;28;20059;-66
2023/07/19 12:17:57;;;;;;;19.30;5.65;;;;;;;;;;4925821;28;20039;-66
2023/07/19 12:20:24;;;;;;;23.42;6.55;;;;;;;;;;4927313;28;20081;-65
2023/07/19 12:22:50;;;;;;;18.23;5.88;;;;;;;;;;4925835;28;20028;-67
2023/07/19 12:25:17;;;;;;;17.35;6.20;;;;;;;;;;4914385;28;20030;-66
2023/07/19 12:27:44;;;;;;;20.27;6.75;;;;;;;;;;4911578;28;20833;-66
2023/07/19 12:30:10;;;;;;;19.77;6.03;;;;;;;;;;4907366;28;20023;-66
2023/07/19 12:32:38;;;;;;;20.25;5.88;;;;;;;;;;4927041;28;20023;-67
2023/07/19 12:35:04;;;;;;;22.30;6.22;;;;;;;;;;4929075;28;20045;-67
2023/07/19 12:37:30;;;;;;;23.67;6.25;;;;;;;;;;4909260;28;20344;-67
2023/07/19 12:39:56;;;;;;;23.92;6.18;;;;;;;;;;4924264;28;20481;-67
2023/07/19 12:42:24;;;;;;;16.42;5.85;;;;;;;;;;4927749;28;20503;-67
2023/07/19 12:44:50;;;;;;;22.95;6.10;;;;;;;;;;4927371;28;20048;-67
2023/07/19 12:47:17;;;;;;;22.70;5.85;;;;;;;;;;4928076;28;20356;-67
2023/07/19 12:49:43;;;;;;;20.75;6.00;;;;;;;;;;4935627;28;20296;-67
2023/07/19 12:52:11;;;;;;;20.20;5.97;;;;;;;;;;4921738;28;20979;-67
2023/07/19 12:54:37;;;;;;;20.05;6.00;;;;;;;;;;4916468;28;20031;-67
2023/07/19 12:57:03;;;;;;;21.48;5.80;;;;;;;;;;4905120;28;20347;-66
2023/07/19 12:59:30;;;;;;;17.73;5.68;;;;;;;;;;4911029;28;20495;-66
2023/07/19 13:01:56;;;;;;;16.55;5.60;;;;;;;;;;4924339;28;20026;-67
2023/07/19 13:04:24;;;;;;;18.85;5.60;;;;;;;;;;4912015;28;20031;-66
2023/07/19 13:06:54;;;;;;;15.23;5.30;;;;;;;;;;4922644;28;20031;-66
2023/07/19 13:09:20;;;;;;;18.08;5.32;;;;;;;;;;4909738;28;20300;-67
2023/07/19 13:11:46;;;;;;;17.40;5.22;;;;;;;;;;4932811;28;20031;-67
2023/07/19 13:14:13;;;;;;;17.75;5.47;;;;;;;;;;4907676;28;20394;-66
2023/07/19 13:16:39;;;;;;;21.02;6.20;;;;;;;;;;4932939;28;20059;-66
2023/07/19 13:19:05;;;;;;;19.02;5.80;;;;;;;;;;4928802;28;20043;-67
2023/07/19 13:21:32;;;;;;;19.60;6.70;;;;;;;;;;4931624;28;21106;-66
2023/07/19 13:23:58;;;;;;;19.42;5.85;;;;;;;;;;4923157;28;20035;-67
2023/07/19 13:26:24;;;;;;;17.90;6.13;;;;;;;;;;4929600;28;20023;-66
2023/07/19 13:28:50;;;;;;;17.90;5.45;;;;;;;;;;4930114;28;20337;-68
2023/07/19 13:31:18;;;;;;;19.67;5.75;;;;;;;;;;4927712;28;20409;-68
2023/07/19 13:33:44;;;;;;;18.58;5.55;;;;;;;;;;4932429;28;20433;-67
2023/07/19 13:36:11;;;;;;;18.25;5.45;;;;;;;;;;4931537;28;20567;-66
2023/07/19 13:38:37;;;;;;;16.08;5.30;;;;;;;;;;4912337;28;20450;-68
2023/07/19 13:41:04;;;;;;;18.58;6.22;;;;;;;;;;4929768;28;20119;-67
2023/07/19 13:43:30;;;;;;;14.70;5.57;;;;;;;;;;4932639;28;20039;-66
2023/07/19 13:45:56;;;;;;;21.27;6.18;;;;;;;;;;4930513;28;20528;-66
2023/07/19 13:48:22;;;;;;;19.00;5.47;;;;;;;;;;4935306;28;20035;-66
2023/07/19 13:50:49;;;;;;;18.17;6.07;;;;;;;;;;4916237;28;20158;-66
2023/07/19 13:53:15;;;;;;;20.60;6.22;;;;;;;;;;4915200;28;20189;-66
2023/07/19 13:55:43;;;;;;;15.95;5.50;;;;;;;;;;4931674;28;20027;-66
2023/07/19 13:58:09;;;;;;;16.55;5.60;;;;;;;;;;4930134;28;20035;-66
2023/07/19 14:00:35;;;;;;;17.70;5.80;;;;;;;;;;4916618;28;20505;-66
2023/07/19 14:03:01;;;;;;;18.05;6.05;;;;;;;;;;4929896;28;20038;-66
2023/07/19 14:05:27;;;;;;;19.13;5.68;;;;;;;;;;4913726;28;20133;-66
2023/07/19 14:07:53;;;;;;;18.88;5.82;;;;;;;;;;4916458;28;20516;-66
2023/07/19 14:10:19;;;;;;;21.40;5.70;;;;;;;;;;4912189;28;20027;-66
2023/07/19 14:12:46;;;;;;;16.55;5.10;;;;;;;;;;4917494;28;20047;-66
2023/07/19 14:15:12;;;;;;;13.15;5.18;;;;;;;;;;4927691;28;20486;-65
2023/07/19 14:17:38;;;;;;;14.55;5.22;;;;;;;;;;4933184;28;20518;-66
2023/07/19 14:20:04;;;;;;;15.20;5.65;;;;;;;;;;4927884;28;20035;-66
2023/07/19 14:22:31;;;;;;;14.57;5.32;;;;;;;;;;4932971;28;20058;-66
2023/07/19 14:24:57;;;;;;;14.48;5.18;;;;;;;;;;4926130;28;20035;-66
2023/07/19 14:27:23;;;;;;;15.25;5.05;;;;;;;;;;4932971;28;20438;-67